sim
Sign-in with your pilot id or email,
or register
Callsign
Passwort

Schedule Details

Flight Number: DLH1288 (1)
Departure: Frankfurt Airport (EDDF) at 09:15
Arrival: Thessaloniki International Airport (LGTS) at 11:40
Route: Lufthansa Passenger Schedule. Enter filed route here before submitting Pirep.

Weather Information
Getting current METAR information for EDDF 252150Z 21006KT CAVOK 12/06 Q1010 NOSIG
Getting current METAR information for LGTS 252150Z 00000KT CAVOK 15/12 Q1020 NOSIG

Schedule Frequency

Route Map